createdAt,value
2023-05-14T00:00:44.549Z,30.4846
2023-05-14T00:01:46.942Z,31.9154
2023-05-14T00:02:49.287Z,31.1538
2023-05-14T00:03:51.695Z,30.8583
2023-05-14T00:04:53.897Z,30.3083
2023-05-14T00:05:56.238Z,30.5769
2023-05-14T00:06:58.579Z,29.0308
2023-05-14T00:08:00.921Z,28.1231
2023-05-14T00:09:03.258Z,29.3417
2023-05-14T00:10:05.605Z,27.3231
2023-05-14T00:11:08.047Z,28.4692
2023-05-14T00:12:10.304Z,28.2333
2023-05-14T00:13:12.591Z,29.8692
2023-05-14T00:14:14.946Z,28.2154
2023-05-14T00:15:17.270Z,31.0231
2023-05-14T00:16:19.662Z,30.3308
2023-05-14T00:17:21.975Z,29.5692
2023-05-14T00:18:24.312Z,29.4385
2023-05-14T00:19:26.717Z,29.8000
2023-05-14T00:20:28.956Z,29.0231
2023-05-14T00:21:31.355Z,30.6231
2023-05-14T00:22:33.647Z,30.8167
2023-05-14T00:23:36.078Z,30.7538
2023-05-14T00:24:38.975Z,32.1583
2023-05-14T00:25:40.824Z,31.6583
2023-05-14T00:26:43.973Z,30.7667
2023-05-14T00:27:45.422Z,31.8333
2023-05-14T00:28:47.729Z,32.9083
2023-05-14T00:29:50.777Z,30.6250
2023-05-14T00:30:52.644Z,30.5333
2023-05-14T00:31:54.809Z,30.3333
2023-05-14T00:32:58.112Z,29.7750
2023-05-14T00:33:59.467Z,32.3083
2023-05-14T00:35:01.919Z,31.2500
2023-05-14T00:36:04.423Z,30.5083
2023-05-14T00:37:06.926Z,30.2417
2023-05-14T00:38:09.798Z,29.2750
2023-05-14T00:39:11.061Z,28.8250
2023-05-14T00:40:13.650Z,29.5077
2023-05-14T00:41:16.187Z,30.6917
2023-05-14T00:42:18.187Z,29.9583
2023-05-14T00:43:20.733Z,30.8500
2023-05-14T00:44:22.873Z,29.4917
2023-05-14T00:45:25.354Z,30.6583
2023-05-14T00:46:27.608Z,30.6250
2023-05-14T00:47:30.674Z,32.6167
2023-05-14T00:48:32.433Z,29.2750
2023-05-14T00:49:34.776Z,29.7500
2023-05-14T00:50:36.998Z,29.1750
2023-05-14T00:51:39.185Z,29.1583
2023-05-14T00:52:41.527Z,31.3583
2023-05-14T00:53:43.995Z,31.9167
2023-05-14T00:54:46.261Z,27.8250
2023-05-14T00:55:49.062Z,28.1833
2023-05-14T00:56:51.096Z,30.1667
2023-05-14T00:57:53.311Z,30.9583
2023-05-14T00:58:55.492Z,29.5333
2023-05-14T00:59:58.031Z,30.0538
2023-05-14T01:01:00.779Z,32.7000
2023-05-14T01:02:02.710Z,31.4667
2023-05-14T01:03:05.192Z,33.7083
2023-05-14T01:04:07.936Z,31.5417
2023-05-14T01:05:09.707Z,31.0583
2023-05-14T01:06:11.975Z,29.7917
2023-05-14T01:07:14.346Z,30.0545
2023-05-14T01:08:16.545Z,29.9250
2023-05-14T01:09:18.957Z,30.4583
2023-05-14T01:10:21.624Z,30.9000
2023-05-14T01:11:23.745Z,32.1917
2023-05-14T01:12:26.621Z,33.3750
2023-05-14T01:13:28.285Z,33.8833
2023-05-14T01:14:30.659Z,33.1917
2023-05-14T01:15:33.070Z,32.0727
2023-05-14T01:16:35.331Z,30.9333
2023-05-14T01:17:37.671Z,29.5308
2023-05-14T01:18:39.929Z,31.8583
2023-05-14T01:19:42.343Z,31.9615
2023-05-14T01:20:44.761Z,29.4846
2023-05-14T01:21:47.043Z,28.6333
2023-05-14T01:22:49.408Z,28.6417
2023-05-14T01:23:51.598Z,31.2750
2023-05-14T01:24:54.015Z,30.8692
2023-05-14T01:25:56.415Z,31.5250
2023-05-14T01:26:58.708Z,31.7333
2023-05-14T01:28:00.930Z,31.9000
2023-05-14T01:29:03.625Z,31.5692
2023-05-14T01:30:05.681Z,32.3333
2023-05-14T01:31:08.102Z,33.6083
2023-05-14T01:32:10.693Z,34.2500
2023-05-14T01:33:12.840Z,32.1917
2023-05-14T01:34:15.201Z,33.1083
2023-05-14T01:35:17.360Z,30.2500
2023-05-14T01:36:20.106Z,30.1500
2023-05-14T01:37:22.190Z,30.5000
2023-05-14T01:38:24.456Z,30.3545
2023-05-14T01:39:26.682Z,31.3250
2023-05-14T01:40:28.950Z,31.4250
2023-05-14T01:41:31.477Z,30.4083
2023-05-14T01:42:33.694Z,30.6636
2023-05-14T01:43:36.228Z,30.3923
2023-05-14T01:44:38.315Z,31.3417
2023-05-14T01:45:40.835Z,33.1923
2023-05-14T01:46:43.273Z,32.2250
2023-05-14T01:47:45.613Z,33.1250
2023-05-14T01:48:47.749Z,33.1167
2023-05-14T01:49:50.235Z,31.0000
2023-05-14T01:50:52.439Z,32.3545
2023-05-14T01:51:54.963Z,33.7083
2023-05-14T01:52:57.358Z,31.7500
2023-05-14T01:53:59.664Z,33.7917
2023-05-14T01:55:02.079Z,30.4417
2023-05-14T01:56:04.101Z,32.0167
2023-05-14T01:57:06.391Z,32.1462
2023-05-14T01:58:08.801Z,31.7417
2023-05-14T01:59:11.205Z,30.8333
2023-05-14T02:00:13.532Z,32.2750
2023-05-14T02:01:16.315Z,32.3000
2023-05-14T02:02:18.980Z,31.8167
2023-05-14T02:03:20.654Z,32.2000
2023-05-14T02:04:22.846Z,34.0000
2023-05-14T02:05:25.327Z,32.3750
2023-05-14T02:06:27.983Z,31.3417
2023-05-14T02:07:29.940Z,32.7583
2023-05-14T02:08:32.655Z,31.8500
2023-05-14T02:09:34.581Z,32.2000
2023-05-14T02:10:36.829Z,33.7500
2023-05-14T02:11:39.247Z,32.3385
2023-05-14T02:12:41.712Z,33.4917
2023-05-14T02:13:43.926Z,30.5333
2023-05-14T02:14:46.199Z,32.2000
2023-05-14T02:15:48.708Z,32.2636
2023-05-14T02:16:50.945Z,30.9917
2023-05-14T02:17:53.264Z,31.0917
2023-05-14T02:18:55.937Z,28.9385
2023-05-14T02:19:58.053Z,29.6083
2023-05-14T02:21:00.287Z,29.7083
2023-05-14T02:22:02.690Z,29.9417
2023-05-14T02:23:05.714Z,29.6167
2023-05-14T02:24:07.240Z,28.9833
2023-05-14T02:25:09.947Z,29.6000
2023-05-14T02:26:12.870Z,30.6917
2023-05-14T02:27:14.857Z,31.9750
2023-05-14T02:28:17.013Z,30.9417
2023-05-14T02:29:19.136Z,30.7583
2023-05-14T02:30:22.144Z,29.5083
2023-05-14T02:31:24.074Z,30.5917
2023-05-14T02:32:26.346Z,30.4667
2023-05-14T02:33:28.678Z,30.3167
2023-05-14T02:34:30.717Z,32.4250
2023-05-14T02:35:33.249Z,31.1083
2023-05-14T02:36:35.775Z,28.9417
2023-05-14T02:37:38.136Z,29.3083
2023-05-14T02:38:40.145Z,32.8083
2023-05-14T02:39:42.328Z,32.7917
2023-05-14T02:40:44.671Z,33.0923
2023-05-14T02:41:47.007Z,33.4636
2023-05-14T02:42:49.358Z,33.0692
2023-05-14T02:43:51.709Z,32.0769
2023-05-14T02:44:54.290Z,30.3500
2023-05-14T02:45:56.355Z,31.6417
2023-05-14T02:46:58.792Z,31.6000
2023-05-14T02:48:01.088Z,32.1583
2023-05-14T02:49:03.392Z,33.0250
2023-05-14T02:50:06.027Z,32.4615
2023-05-14T02:51:08.081Z,34.7833
2023-05-14T02:52:10.437Z,34.4308
2023-05-14T02:53:12.708Z,33.1385
2023-05-14T02:54:15.050Z,31.3462
2023-05-14T02:55:17.431Z,29.9692
2023-05-14T02:56:19.719Z,30.4538
2023-05-14T02:57:22.097Z,30.0538
2023-05-14T02:58:27.435Z,31.1833
2023-05-14T02:59:26.980Z,32.7750
2023-05-14T03:00:29.072Z,32.0000
2023-05-14T03:01:32.041Z,32.8833
2023-05-14T03:02:33.970Z,32.0250
2023-05-14T03:03:36.108Z,32.4917
2023-05-14T03:04:38.718Z,32.8000
2023-05-14T03:05:41.042Z,32.7000
2023-05-14T03:06:43.122Z,32.8000
2023-05-14T03:07:45.466Z,31.5923
2023-05-14T03:08:47.793Z,33.1583
2023-05-14T03:09:50.095Z,34.1231
2023-05-14T03:10:52.468Z,30.7154
2023-05-14T03:11:54.780Z,30.5833
2023-05-14T03:12:57.166Z,31.1923
2023-05-14T03:13:59.503Z,30.8462
2023-05-14T03:15:02.104Z,32.3833
2023-05-14T03:16:04.150Z,33.5182
2023-05-14T03:17:06.574Z,34.2750
2023-05-14T03:18:09.134Z,32.8077
2023-05-14T03:19:11.363Z,31.5083
2023-05-14T03:20:13.584Z,32.2500
2023-05-14T03:21:15.997Z,30.7000
2023-05-14T03:22:18.371Z,31.3000
2023-05-14T03:23:20.515Z,33.8750
2023-05-14T03:24:22.974Z,32.9667
2023-05-14T03:25:25.783Z,32.6917
2023-05-14T03:26:27.935Z,33.4917
2023-05-14T03:27:30.636Z,31.0000
2023-05-14T03:28:32.201Z,30.8818
2023-05-14T03:29:34.513Z,31.2615
2023-05-14T03:30:36.996Z,33.2154
2023-05-14T03:31:39.214Z,33.0333
2023-05-14T03:32:41.618Z,32.6000
2023-05-14T03:33:44.044Z,33.3333
2023-05-14T03:34:46.312Z,33.9250
2023-05-14T03:35:48.555Z,35.2667
2023-05-14T03:36:52.007Z,32.9385
2023-05-14T03:37:53.228Z,30.0417
2023-05-14T03:38:55.570Z,33.1154
2023-05-14T03:39:58.037Z,32.4923
2023-05-14T03:41:00.453Z,32.3750
2023-05-14T03:42:02.881Z,30.9917
2023-05-14T03:43:04.904Z,31.0833
2023-05-14T03:44:07.275Z,32.9538
2023-05-14T03:45:09.615Z,32.2083
2023-05-14T03:46:12.258Z,33.4000
2023-05-14T03:47:14.363Z,29.9417
2023-05-14T03:48:16.796Z,30.0750
2023-05-14T03:49:19.016Z,29.6500
2023-05-14T03:50:21.359Z,31.3917
2023-05-14T03:51:23.603Z,32.8083
2023-05-14T03:52:25.942Z,31.0923
2023-05-14T03:53:28.383Z,31.7833
2023-05-14T03:54:30.668Z,30.3000
2023-05-14T03:55:32.925Z,30.8083
2023-05-14T03:56:35.294Z,31.1077
2023-05-14T03:57:37.761Z,29.4917
2023-05-14T03:58:40.069Z,30.8750
2023-05-14T03:59:42.647Z,30.9583
2023-05-14T04:00:44.937Z,31.3000
2023-05-14T04:01:47.290Z,32.3750
2023-05-14T04:02:49.330Z,31.7167
2023-05-14T04:03:51.845Z,30.7250
2023-05-14T04:04:54.438Z,33.1333
2023-05-14T04:05:57.083Z,32.7000
2023-05-14T04:06:58.696Z,32.7917
2023-05-14T04:08:01.013Z,34.1077
2023-05-14T04:09:03.428Z,31.1615
2023-05-14T04:10:06.070Z,33.2769
2023-05-14T04:11:08.061Z,32.8417
2023-05-14T04:12:10.552Z,32.7692
2023-05-14T04:13:13.138Z,34.1083
2023-05-14T04:14:15.212Z,33.6417
2023-05-14T04:15:17.723Z,30.9667
2023-05-14T04:16:19.730Z,33.7250
2023-05-14T04:17:22.090Z,32.6846
2023-05-14T04:18:24.548Z,33.2750
2023-05-14T04:19:26.697Z,31.7250
2023-05-14T04:20:29.190Z,27.6692
2023-05-14T04:21:31.472Z,31.0167
2023-05-14T04:22:33.945Z,30.7250
2023-05-14T04:23:36.134Z,34.8333
2023-05-14T04:24:38.415Z,31.8083
2023-05-14T04:25:40.724Z,32.6077
2023-05-14T04:26:43.180Z,32.3000
2023-05-14T04:27:45.407Z,33.7000
2023-05-14T04:28:47.950Z,32.4769
2023-05-14T04:29:50.329Z,31.7000
2023-05-14T04:30:52.443Z,32.5667
2023-05-14T04:31:54.781Z,33.3231
2023-05-14T04:32:57.131Z,34.5333
2023-05-14T04:33:59.576Z,33.0917
2023-05-14T04:35:01.898Z,32.9250
2023-05-14T04:36:04.088Z,31.8667
2023-05-14T04:37:06.401Z,32.2846
2023-05-14T04:38:08.770Z,31.3000
2023-05-14T04:39:11.180Z,32.7231
2023-05-14T04:40:13.407Z,29.6750
2023-05-14T04:41:15.744Z,30.5538
2023-05-14T04:42:18.080Z,32.0308
2023-05-14T04:43:20.466Z,33.2909
2023-05-14T04:44:22.743Z,32.9769
2023-05-14T04:45:25.086Z,33.6000
2023-05-14T04:46:27.553Z,32.0462
2023-05-14T04:47:29.828Z,34.0417
2023-05-14T04:48:32.084Z,34.0917
2023-05-14T04:49:34.563Z,30.2308
2023-05-14T04:50:36.832Z,30.0833
2023-05-14T04:51:39.097Z,29.7333
2023-05-14T04:52:41.482Z,30.0462
2023-05-14T04:53:45.025Z,31.7083
2023-05-14T04:54:47.410Z,32.2750
2023-05-14T04:55:48.941Z,32.9917
2023-05-14T04:56:50.919Z,31.7833
2023-05-14T04:57:53.169Z,33.0000
2023-05-14T04:58:55.982Z,30.2462
2023-05-14T04:59:57.795Z,31.4167
2023-05-14T05:01:00.504Z,30.7167
2023-05-14T05:02:02.486Z,32.3500
2023-05-14T05:03:05.257Z,33.4273
2023-05-14T05:04:07.205Z,32.5833
2023-05-14T05:05:09.862Z,30.5500
2023-05-14T05:06:12.329Z,31.7667
2023-05-14T05:07:14.143Z,30.2667
2023-05-14T05:08:17.115Z,31.2917
2023-05-14T05:09:19.400Z,32.3417
2023-05-14T05:10:21.272Z,32.4000
2023-05-14T05:11:23.603Z,29.4545
2023-05-14T05:12:25.911Z,29.6667
2023-05-14T05:13:28.270Z,32.4417
2023-05-14T05:14:30.545Z,31.8083
2023-05-14T05:15:33.014Z,31.7500
2023-05-14T05:16:35.559Z,30.2750
2023-05-14T05:17:37.797Z,30.1417
2023-05-14T05:18:40.186Z,30.7083
2023-05-14T05:19:44.118Z,30.4000
2023-05-14T05:20:44.589Z,30.9500
2023-05-14T05:21:47.355Z,28.4615
2023-05-14T05:22:49.395Z,27.0417
2023-05-14T05:23:51.652Z,28.4750
2023-05-14T05:24:54.322Z,30.1250
2023-05-14T05:25:56.349Z,27.4583
2023-05-14T05:26:58.593Z,31.8750
2023-05-14T05:28:00.968Z,32.4462
2023-05-14T05:29:03.298Z,31.4167
2023-05-14T05:30:05.641Z,33.0333
2023-05-14T05:31:08.330Z,33.3333
2023-05-14T05:32:10.435Z,31.5333
2023-05-14T05:33:12.668Z,29.9833
2023-05-14T05:34:14.918Z,29.3250
2023-05-14T05:35:17.343Z,31.7091
2023-05-14T05:36:19.715Z,30.5250
2023-05-14T05:37:22.097Z,31.2583
2023-05-14T05:38:24.298Z,30.6500
2023-05-14T05:39:26.643Z,31.6154
2023-05-14T05:40:28.974Z,31.9462
2023-05-14T05:41:31.321Z,32.3167
2023-05-14T05:42:33.751Z,30.9909
2023-05-14T05:43:36.049Z,31.4583
2023-05-14T05:44:38.462Z,30.6917
2023-05-14T05:45:40.740Z,29.6333
2023-05-14T05:46:43.191Z,29.0917
2023-05-14T05:47:45.488Z,28.9583
2023-05-14T05:48:47.809Z,30.2250
2023-05-14T05:49:50.006Z,32.0250
2023-05-14T05:50:52.377Z,31.1231
2023-05-14T05:51:54.793Z,29.2000
2023-05-14T05:52:57.023Z,29.9833
2023-05-14T05:53:59.339Z,29.4273
2023-05-14T05:55:01.697Z,29.2385
2023-05-14T05:56:04.091Z,30.9308
2023-05-14T05:57:06.456Z,29.6182
2023-05-14T05:58:08.713Z,28.8083
2023-05-14T05:59:11.157Z,28.7231
2023-05-14T06:00:13.484Z,28.0833
2023-05-14T06:01:15.888Z,32.5333
2023-05-14T06:02:18.121Z,30.9333
2023-05-14T06:03:20.410Z,29.5500
2023-05-14T06:04:22.750Z,29.4308
2023-05-14T06:05:25.091Z,31.1385
2023-05-14T06:06:27.372Z,31.3385
2023-05-14T06:07:29.801Z,28.9308
2023-05-14T06:08:32.428Z,29.8833
2023-05-14T06:09:34.401Z,29.6000
2023-05-14T06:10:36.850Z,27.9385
2023-05-14T06:11:39.082Z,29.2750
2023-05-14T06:12:41.444Z,29.5462
2023-05-14T06:13:43.818Z,31.2692
2023-05-14T06:14:46.084Z,29.9583
2023-05-14T06:15:48.407Z,30.3692
2023-05-14T06:16:50.924Z,30.4583
2023-05-14T06:17:53.418Z,28.4583
2023-05-14T06:18:55.505Z,28.2500
2023-05-14T06:19:57.984Z,29.0750
2023-05-14T06:21:00.142Z,28.9000
2023-05-14T06:22:02.791Z,30.4083
2023-05-14T06:23:04.810Z,29.4583
2023-05-14T06:24:07.216Z,31.0231
2023-05-14T06:25:09.610Z,30.1000
2023-05-14T06:26:12.129Z,28.5667
2023-05-14T06:27:14.170Z,29.6917
2023-05-14T06:28:16.442Z,29.1417
2023-05-14T06:29:19.306Z,30.7583
2023-05-14T06:30:21.392Z,28.5083
2023-05-14T06:31:23.449Z,27.3167
2023-05-14T06:32:25.851Z,29.5231
2023-05-14T06:33:28.129Z,30.1846
2023-05-14T06:34:30.551Z,29.1308
2023-05-14T06:35:32.811Z,29.7833
2023-05-14T06:36:35.096Z,29.8833
2023-05-14T06:37:38.247Z,30.0250
2023-05-14T06:38:39.896Z,30.1917
2023-05-14T06:39:42.113Z,29.9750
2023-05-14T06:40:44.512Z,30.3308
2023-05-14T06:41:47.131Z,31.5667
2023-05-14T06:42:49.648Z,31.1583
2023-05-14T06:43:51.580Z,30.8750
2023-05-14T06:44:53.841Z,31.4250
2023-05-14T06:45:56.134Z,33.6000
2023-05-14T06:46:58.572Z,32.3077
2023-05-14T06:48:01.506Z,30.8583
2023-05-14T06:49:03.126Z,31.8667
2023-05-14T06:50:05.435Z,31.5308
2023-05-14T06:51:07.787Z,31.6231
2023-05-14T06:52:10.128Z,31.6769
2023-05-14T06:53:12.431Z,31.2308
2023-05-14T06:54:14.787Z,29.2077
2023-05-14T06:55:17.096Z,30.4231
2023-05-14T06:56:19.447Z,30.6000
2023-05-14T06:57:21.780Z,30.0000
2023-05-14T06:58:24.116Z,30.4385
2023-05-14T06:59:26.552Z,32.0231
2023-05-14T07:00:28.861Z,33.0333
2023-05-14T07:01:31.189Z,34.1077
2023-05-14T07:02:33.496Z,31.5667
2023-05-14T07:03:35.832Z,31.6769
2023-05-14T07:04:39.274Z,31.2615
2023-05-14T07:05:40.609Z,30.8167
2023-05-14T07:06:42.820Z,30.8750
2023-05-14T07:07:45.179Z,32.4154
2023-05-14T07:08:47.482Z,34.0692
2023-05-14T07:09:49.971Z,33.7154
2023-05-14T07:10:52.308Z,32.5667
2023-05-14T07:11:54.624Z,31.6583
2023-05-14T07:12:57.079Z,34.0083
2023-05-14T07:13:59.282Z,32.7083
2023-05-14T07:15:01.585Z,33.3167
2023-05-14T07:16:03.852Z,31.9583
2023-05-14T07:17:06.312Z,33.9000
2023-05-14T07:18:08.548Z,34.2333
2023-05-14T07:19:10.979Z,34.0846
2023-05-14T07:20:13.179Z,34.2750
2023-05-14T07:21:15.555Z,33.8462
2023-05-14T07:22:17.865Z,34.5923
2023-05-14T07:23:20.240Z,34.9769
2023-05-14T07:24:22.512Z,33.3308
2023-05-14T07:25:24.842Z,33.7077
2023-05-14T07:26:27.251Z,32.6923
2023-05-14T07:27:29.569Z,32.6833
2023-05-14T07:28:31.844Z,35.2750
2023-05-14T07:29:34.182Z,34.8769
2023-05-14T07:30:36.516Z,34.1308
2023-05-14T07:31:38.918Z,33.1846
2023-05-14T07:32:41.474Z,34.4750
2023-05-14T07:33:43.526Z,32.9667
2023-05-14T07:34:45.879Z,34.3818
2023-05-14T07:35:48.211Z,32.2615
2023-05-14T07:36:50.563Z,33.1636
2023-05-14T07:37:52.932Z,31.5750
2023-05-14T07:38:55.250Z,27.7167
2023-05-14T07:39:57.591Z,29.5000
2023-05-14T07:40:59.874Z,30.9615
2023-05-14T07:42:02.217Z,29.8769
2023-05-14T07:43:04.584Z,32.3538
2023-05-14T07:44:06.957Z,32.5385
2023-05-14T07:45:09.217Z,32.0500
2023-05-14T07:46:11.591Z,32.2917
2023-05-14T07:47:13.933Z,33.6000
2023-05-14T07:48:16.259Z,31.8583
2023-05-14T07:49:18.555Z,33.4846
2023-05-14T07:50:20.933Z,32.5846
2023-05-14T07:51:23.271Z,31.3833
2023-05-14T07:52:25.562Z,30.8833
2023-05-14T07:53:27.888Z,31.7462
2023-05-14T07:54:30.380Z,31.2692
2023-05-14T07:55:32.597Z,32.2833
2023-05-14T07:56:34.895Z,33.4769
2023-05-14T07:57:37.236Z,35.0000
2023-05-14T07:58:39.557Z,32.4917
2023-05-14T07:59:41.932Z,32.0923
2023-05-14T08:00:44.249Z,32.5000
2023-05-14T08:01:46.611Z,30.4000
2023-05-14T08:02:49.219Z,31.8692
2023-05-14T08:03:51.348Z,33.1667
2023-05-14T08:04:53.647Z,30.6500
2023-05-14T08:05:55.970Z,32.4250
2023-05-14T08:06:58.321Z,31.0917
2023-05-14T08:08:00.613Z,29.7583
2023-05-14T08:09:10.523Z,32.1615
2023-05-14T08:10:05.442Z,31.6091
2023-05-14T08:11:07.711Z,31.5917
2023-05-14T08:12:10.028Z,29.1538
2023-05-14T08:13:12.319Z,30.1538
2023-05-14T08:14:14.746Z,28.4308
2023-05-14T08:15:17.032Z,28.1500
2023-05-14T08:16:19.431Z,28.0308
2023-05-14T08:17:21.773Z,29.2923
2023-05-14T08:18:24.013Z,27.1231
2023-05-14T08:19:26.350Z,27.1154
2023-05-14T08:20:28.846Z,28.1154
2023-05-14T08:21:31.062Z,26.7250
2023-05-14T08:22:33.371Z,25.9000
2023-05-14T08:23:35.968Z,27.0615
2023-05-14T08:26:47.797Z,26.1667
2023-05-14T08:26:47.797Z,25.8000
2023-05-14T08:27:49.854Z,26.4417
2023-05-14T08:28:52.494Z,25.2923
2023-05-14T08:29:54.715Z,24.6917
2023-05-14T08:30:56.981Z,25.0417
2023-05-14T08:32:01.925Z,25.6167
2023-05-14T08:33:01.678Z,23.6909
2023-05-14T08:34:05.088Z,24.0083
2023-05-14T08:35:06.935Z,24.4000
2023-05-14T08:36:08.528Z,25.2750
2023-05-14T08:37:10.899Z,23.4538
2023-05-14T08:38:13.215Z,24.4308
2023-05-14T08:39:15.537Z,24.2692
2023-05-14T08:40:17.881Z,25.5308
2023-05-14T08:41:20.250Z,23.8231
2023-05-14T08:42:22.608Z,24.3385
2023-05-14T08:43:24.882Z,25.7000
2023-05-14T08:44:27.424Z,24.0923
2023-05-14T08:45:29.586Z,25.7167
2023-05-14T08:46:31.920Z,25.0917
2023-05-14T08:47:34.335Z,25.4417
2023-05-14T08:48:37.717Z,25.3167
2023-05-14T08:49:39.089Z,24.7500
2023-05-14T08:50:41.292Z,22.2583
2023-05-14T08:51:43.616Z,24.0385
2023-05-14T08:52:45.941Z,24.9667
2023-05-14T08:53:48.288Z,25.4538
2023-05-14T08:54:50.664Z,25.5769
2023-05-14T08:55:53.220Z,24.8923
2023-05-14T08:56:55.464Z,24.0500
2023-05-14T08:57:58.168Z,23.3583
2023-05-14T08:59:00.022Z,23.0250
2023-05-14T09:00:02.553Z,23.3769
2023-05-14T09:01:04.754Z,23.9833
2023-05-14T09:02:07.145Z,24.8833
2023-05-14T09:03:09.450Z,24.5417
2023-05-14T09:04:11.831Z,24.6250
2023-05-14T09:05:14.163Z,22.1500
2023-05-14T09:06:16.503Z,21.4727
2023-05-14T09:07:18.781Z,23.9500
2023-05-14T09:08:24.298Z,21.9818
2023-05-14T09:09:23.575Z,22.3917
2023-05-14T09:10:26.514Z,20.1250
2023-05-14T09:11:28.149Z,18.3167
2023-05-14T09:12:30.855Z,18.4583
2023-05-14T09:13:33.063Z,19.7333
2023-05-14T09:14:35.147Z,18.8250
2023-05-14T09:15:37.405Z,17.6750
2023-05-14T09:16:39.870Z,14.7154
2023-05-14T09:17:42.234Z,14.9917
2023-05-14T09:18:44.422Z,14.4250
2023-05-14T09:19:46.744Z,14.7000
2023-05-14T09:20:49.057Z,15.5077
2023-05-14T09:21:51.442Z,14.8308
2023-05-14T09:22:53.793Z,13.8455
2023-05-14T09:23:56.055Z,12.3250
2023-05-14T09:24:58.558Z,11.0385
2023-05-14T09:26:00.929Z,11.3667
2023-05-14T09:27:03.115Z,9.8250
2023-05-14T09:28:05.659Z,9.4769
2023-05-14T09:29:08.191Z,9.3167
2023-05-14T09:30:10.270Z,11.4750
2023-05-14T09:31:12.451Z,11.7083
2023-05-14T09:32:14.925Z,11.8615
2023-05-14T09:33:17.195Z,13.3500
2023-05-14T09:34:19.423Z,10.4500
2023-05-14T09:35:21.857Z,10.3077
2023-05-14T09:36:24.164Z,12.4750
2023-05-14T09:37:26.530Z,11.0636
2023-05-14T09:38:28.790Z,9.5333
2023-05-14T09:39:31.270Z,11.9231
2023-05-14T09:40:33.633Z,13.0083
2023-05-14T09:41:35.831Z,11.7000
2023-05-14T09:42:38.160Z,11.7385
2023-05-14T09:43:40.491Z,13.3615
2023-05-14T09:44:42.986Z,15.2923
2023-05-14T09:45:45.179Z,15.9750
2023-05-14T09:46:47.578Z,19.3538
2023-05-14T09:47:49.982Z,17.2750
2023-05-14T09:48:52.218Z,17.8083
2023-05-14T09:49:54.522Z,15.3000
2023-05-14T09:50:56.880Z,15.1083
2023-05-14T09:51:59.223Z,15.2000
2023-05-14T09:53:01.541Z,13.7846
2023-05-14T09:54:03.955Z,13.0538
2023-05-14T09:55:06.202Z,11.2583
2023-05-14T09:56:08.541Z,10.4615
2023-05-14T09:57:10.949Z,8.8077
2023-05-14T09:58:13.241Z,8.4667
2023-05-14T09:59:15.547Z,8.2846
2023-05-14T10:00:17.872Z,7.6385
2023-05-14T10:01:20.308Z,7.5615
2023-05-14T10:02:22.577Z,8.5538
2023-05-14T10:03:24.981Z,7.6615
2023-05-14T10:04:27.411Z,7.9583
2023-05-14T10:05:29.585Z,7.9583
2023-05-14T10:06:32.109Z,6.5154
2023-05-14T10:07:34.260Z,6.6750
2023-05-14T10:08:36.660Z,7.0615
2023-05-14T10:09:39.447Z,8.1077
2023-05-14T10:10:46.613Z,9.7833
2023-05-14T10:11:43.782Z,10.0636
2023-05-14T10:12:46.111Z,8.2636
2023-05-14T10:13:48.329Z,12.2000
2023-05-14T10:14:50.953Z,18.1846
2023-05-14T10:15:53.172Z,17.2917
2023-05-14T10:16:55.466Z,17.2167
2023-05-14T10:17:57.764Z,19.3250
2023-05-14T10:19:00.147Z,19.7917
2023-05-14T10:20:02.422Z,21.8250
2023-05-14T10:21:04.781Z,22.9333
2023-05-14T10:22:07.728Z,23.0917
2023-05-14T10:23:09.396Z,23.6000
2023-05-14T10:24:11.724Z,23.1000
2023-05-14T10:25:14.068Z,24.6615
2023-05-14T10:26:16.513Z,25.2231
2023-05-14T10:27:18.709Z,24.9417
2023-05-14T10:28:22.265Z,25.0692
2023-05-14T10:29:23.409Z,24.5917
2023-05-14T10:30:25.955Z,25.2231
2023-05-14T10:31:28.127Z,24.8083
2023-05-14T10:32:30.413Z,25.3231
2023-05-14T10:33:32.748Z,24.7000
2023-05-14T10:34:35.273Z,24.2462
2023-05-14T10:35:37.435Z,24.8417
2023-05-14T10:36:39.788Z,24.3462
2023-05-14T10:37:42.248Z,24.7846
2023-05-14T10:38:44.448Z,26.1250
2023-05-14T10:39:46.841Z,24.9615
2023-05-14T10:40:51.602Z,25.0500
2023-05-14T10:41:51.482Z,23.4250
2023-05-14T10:42:53.884Z,23.0077
2023-05-14T10:43:56.134Z,24.3000
2023-05-14T10:44:58.722Z,22.9462
2023-05-14T10:46:01.021Z,22.0083
2023-05-14T10:47:03.678Z,19.2500
2023-05-14T10:48:10.286Z,22.5167
2023-05-14T10:49:08.022Z,22.3364
2023-05-14T10:50:11.145Z,20.4083
2023-05-14T10:51:12.832Z,20.7083
2023-05-14T10:52:15.158Z,22.2167
2023-05-14T10:53:17.688Z,22.0333
2023-05-14T10:54:19.676Z,21.7333
2023-05-14T10:55:21.999Z,20.1083
2023-05-14T10:56:24.514Z,20.2917
2023-05-14T10:57:26.739Z,19.2667
2023-05-14T10:58:29.405Z,20.3667
2023-05-14T10:59:31.166Z,18.8750
2023-05-14T11:00:33.517Z,17.0615
2023-05-14T11:01:36.006Z,15.6769
2023-05-14T11:02:38.315Z,14.2750
2023-05-14T11:03:40.848Z,14.1167
2023-05-14T11:04:42.889Z,13.5333
2023-05-14T11:05:45.259Z,12.4500
2023-05-14T11:06:47.646Z,11.4000
2023-05-14T11:07:49.860Z,9.4083
2023-05-14T11:08:52.226Z,8.4154
2023-05-14T11:09:54.549Z,8.7182
2023-05-14T11:10:56.877Z,6.9385
2023-05-14T11:11:59.325Z,7.1923
2023-05-14T11:13:01.558Z,6.5364
2023-05-14T11:14:03.899Z,4.1615
2023-05-14T11:15:06.418Z,3.5154
2023-05-14T11:16:21.894Z,2.7167
2023-05-14T11:17:11.303Z,2.2455
2023-05-14T11:18:13.316Z,2.2417
2023-05-14T11:19:15.861Z,1.8167
2023-05-14T11:20:18.031Z,1.9083
2023-05-14T11:21:20.395Z,1.8583
2023-05-14T11:22:22.823Z,2.1333
2023-05-14T11:23:24.917Z,2.0000
2023-05-14T11:24:27.268Z,1.8923
2023-05-14T11:25:29.605Z,1.8154
2023-05-14T11:26:32.063Z,1.6231
2023-05-14T11:27:34.315Z,1.5333
2023-05-14T11:28:36.720Z,1.3308
2023-05-14T11:29:38.962Z,1.3250
2023-05-14T11:30:41.299Z,1.4769
2023-05-14T11:31:43.662Z,1.4846
2023-05-14T11:32:46.259Z,1.3583
2023-05-14T11:33:48.328Z,1.3333
2023-05-14T11:34:50.658Z,1.4692
2023-05-14T11:35:53.091Z,1.3692
2023-05-14T11:36:55.343Z,1.3333
2023-05-14T11:37:57.669Z,1.3000
2023-05-14T11:39:00.050Z,1.4923
2023-05-14T11:40:02.417Z,1.4000
2023-05-14T11:41:04.685Z,1.4385
2023-05-14T11:42:07.022Z,1.4462
2023-05-14T11:43:09.371Z,1.5077
2023-05-14T11:44:11.764Z,1.5308
2023-05-14T11:45:14.074Z,1.6250
2023-05-14T11:46:16.421Z,1.4231
2023-05-14T11:47:18.754Z,1.5385
2023-05-14T11:48:21.415Z,1.4385
2023-05-14T11:49:23.481Z,1.4500
2023-05-14T11:50:25.911Z,1.2846
2023-05-14T11:51:28.168Z,1.5000
2023-05-14T11:52:30.464Z,1.6077
2023-05-14T11:53:32.822Z,1.7667
2023-05-14T11:54:35.159Z,2.1000
2023-05-14T11:55:37.601Z,2.2769
2023-05-14T11:56:39.838Z,2.1833
2023-05-14T11:57:42.297Z,2.3923
2023-05-14T11:58:44.480Z,2.8500
2023-05-14T11:59:46.827Z,3.0846
2023-05-14T12:00:49.198Z,3.3077
2023-05-14T12:01:51.504Z,3.2615
2023-05-14T12:02:53.941Z,3.2154
2023-05-14T12:03:56.241Z,2.7917
2023-05-14T12:04:58.533Z,2.8167
2023-05-14T12:06:00.915Z,3.2077
2023-05-14T12:07:03.229Z,3.2769
2023-05-14T12:08:05.624Z,3.6091
2023-05-14T12:09:07.916Z,3.4462
2023-05-14T12:10:10.239Z,3.3923
2023-05-14T12:11:12.601Z,3.3273
2023-05-14T12:12:14.969Z,3.7154
2023-05-14T12:13:17.349Z,3.6308
2023-05-14T12:14:19.698Z,4.1333
2023-05-14T12:15:22.024Z,4.1385
2023-05-14T12:16:25.010Z,4.5308
2023-05-14T12:17:27.208Z,5.0583
2023-05-14T12:18:29.161Z,4.5333
2023-05-14T12:19:31.407Z,4.6000
2023-05-14T12:20:33.734Z,5.4692
2023-05-14T12:21:36.232Z,5.5231
2023-05-14T12:22:41.575Z,7.2083
2023-05-14T12:23:42.823Z,8.9583
2023-05-14T12:24:45.600Z,8.7556
2023-05-14T12:25:46.319Z,9.8455
2023-05-14T12:26:48.308Z,12.6091
2023-05-14T12:27:50.762Z,12.5500
2023-05-14T12:28:52.634Z,14.4750
2023-05-14T12:29:54.956Z,15.1000
2023-05-14T12:31:19.850Z,19.1917
2023-05-14T12:31:59.791Z,18.7571
2023-05-14T12:33:02.300Z,19.8833
2023-05-14T12:34:04.743Z,21.0818
2023-05-14T12:35:07.006Z,21.0583
2023-05-14T12:37:11.170Z,21.5250
2023-05-14T12:38:13.992Z,22.9154
2023-05-14T12:39:15.964Z,22.9750